• Join FlightAware (Why Join?)
  • Login
  • US Flag 
Rudolph Flight #1: Arrived! 
12:25AM EST


 

Airport Tracker/Info


-or-


 

Live Flight TrackerFlight Track Log ✈ N3QE ✈ 24-Jul-2014 ✈ KAPF - KDAL

Flight Track Log - Related Links

Times and Time Zones

All times are in EDT time to prevent confusion due to time zone crossing. See the N3QE flight status page for this flight to view local times or setup timezone preferences in your user account.

Time Position Orientation Groundspeed Altitude Reporting Facility
EDT Latitude Longitude Course Direction KTS MPH feet Rate Location/Type
12:11PM 26.6289 -82.8031 300° West 276 318 20,900  Level Miami Center
12:12PM 26.6586 -82.8853 292° West 279 321 21,800 840 Climbing Miami Center
12:13PM 27.1737 -83.6672 300° West  Level Estimated
12:13PM 26.6883 -82.9678 292° West 283 326 22,700  Level Miami Center
12:14PM 27.2159 -83.7506 300° West  Level Estimated
12:14PM 26.7183 -83.0511 292° West 287 330 23,700  Level Miami Center
12:15PM 27.2580 -83.8340 300° West  Level Estimated
12:15PM 26.7533 -83.1517 291° West 290 334 24,700  Level Miami Center
12:16PM 27.3000 -83.9176 300° West  Level Estimated
12:16PM 26.7839 -83.2356 292° West 290 334 25,600  Level Miami Center
12:17PM 26.8144 -83.3194 292° West 290 334 26,500 840 Climbing Miami Center
12:18PM 26.8428 -83.4025 291° West 289 333 27,400 720 Climbing Miami Center
12:19PM 26.8722 -83.4856 292° West 288 331 28,100 660 Climbing Miami Center
12:20PM 26.9025 -83.5692 292° West 288 331 28,800 720 Climbing Miami Center
12:21PM 26.9375 -83.6703 291° West 289 333 29,600 720 Climbing Miami Center
12:22PM 26.9675 -83.7544 292° West 290 334 30,300 660 Climbing Miami Center
12:23PM 26.9969 -83.8389 291° West 290 334 31,000 660 Climbing Miami Center
12:24PM 27.0256 -83.9231 291° West 290 334 31,700 660 Climbing Miami Center
12:25PM 27.0556 -84.0081 292° West 290 334 32,400 720 Climbing Miami Center
12:26PM 27.0919 -84.1117 292° West 294 338 33,300 720 Climbing Miami Center
12:27PM 27.1206 -84.1969 291° West 293 337 34,000 660 Climbing Miami Center
12:28PM 27.1506 -84.2819 292° West 293 337 34,700 540 Climbing Miami Center
12:29PM 27.1797 -84.3667 291° West 292 336 35,200 480 Climbing Miami Center
12:30PM 27.2094 -84.4519 291° West 293 337 35,700 480 Climbing Miami Center
12:31PM 27.2392 -84.5375 291° West 293 337 36,200 480 Climbing Miami Center
12:32PM 27.2731 -84.6392 291° West 294 338 36,800 480 Climbing Miami Center
12:33PM 27.3033 -84.7247 292° West 293 337 37,300 480 Climbing Miami Center
12:34PM 27.3317 -84.8100 291° West 293 337 37,800 480 Climbing Miami Center
12:35PM 27.3606 -84.8947 291° West 292 336 38,300 480 Climbing Miami Center
12:36PM 27.3906 -84.9786 292° West 290 334 38,800 420 Climbing Miami Center
12:37PM 27.4225 -85.0778 290° West 285 328 39,200 300 Climbing Miami Center
12:39PM 27.4506 -85.1608 291° West 285 328 39,500 240 Climbing Miami Center
12:40PM 27.4803 -85.2461 291° West 287 330 39,800 240 Climbing Miami Center
12:41PM 27.5089 -85.3314 291° West 288 331 40,100 60 Climbing Miami Center
12:42PM 27.5358 -85.4158 290° West 288 331 40,000 -60 Descending Miami Center
12:43PM 27.5667 -85.5064 291° West 300 345 40,000  Level Miami Center
12:44PM 27.6039 -85.6181 291° West 314 361 40,000  Level Miami Center
12:45PM 27.6347 -85.7094 291° West 316 364 40,000  Level Miami Center
12:45PM 27.6525 -85.7714 288° West 314 361 40,000  Level Jacksonville Center
12:46PM 27.6839 -85.8614 292° West 314 361 40,000  Level Jacksonville Center
12:47PM 27.7172 -85.9583 291° West 326 375 40,000  Level Jacksonville Center
12:48PM 27.7481 -86.0553 290° West 334 384 40,000  Level Jacksonville Center
12:49PM 27.7811 -86.1503 291° West 326 375 40,000  Level Jacksonville Center
12:50PM 27.8122 -86.2475 290° West 326 375 40,000  Level Jacksonville Center
12:51PM 27.8469 -86.3494 291° West 334 384 40,000  Level Jacksonville Center
12:52PM 27.8775 -86.4514 289° West 347 399 40,000  Level Jacksonville Center
12:53PM 27.9103 -86.5442 292° West 341 392 40,000  Level Jacksonville Center
12:54PM 27.9450 -86.6486 291° West 341 392 40,000  Level Jacksonville Center
12:55PM 27.9756 -86.7461 290° West 341 392 40,000  Level Jacksonville Center
12:56PM 28.0058 -86.8414 290° West 335 386 40,000  Level Jacksonville Center
12:57PM 28.0403 -86.9461 290° West 345 397 40,000  Level Jacksonville Center
12:58PM 28.0686 -87.0389 289° West 338 389 40,000  Level Jacksonville Center
12:59PM 28.0969 -87.1317 289° West 338 389 40,000  Level Jacksonville Center
01:00PM 28.1331 -87.2344 292° West 337 388 40,000  Level Jacksonville Center
01:01PM 28.1547 -87.3056 289° West 333 383 40,000  Level Houston Center
01:02PM 28.1869 -87.4058 290° West 334 384 40,000  Level Houston Center
01:03PM 28.2189 -87.5036 290° West 334 384 40,000  Level Houston Center
01:04PM 28.2506 -87.6022 290° West 334 384 40,000  Level Houston Center
01:05PM 28.2867 -87.7206 289° West 334 384 40,000  Level Houston Center
01:06PM 28.3172 -87.8158 290° West 333 383 40,000  Level Houston Center
01:07PM 28.3475 -87.9142 289° West 330 380 40,000  Level Houston Center
01:08PM 28.3781 -88.0133 289° West 331 381 40,000  Level Houston Center
01:09PM 28.4325 -88.0961 307° West 345 397 40,000  Level Houston Center
01:10PM 28.5008 -88.1875 310° West 331 381 40,000  Level Houston Center
01:11PM 28.5594 -88.2664 310° West 330 380 40,000  Level Houston Center
01:12PM 28.6175 -88.3458 310° West 330 380 40,000  Level Houston Center
01:14PM 28.6703 -88.4325 305° West 330 380 40,000  Level Houston Center
01:15PM 28.7264 -88.5158 308° West 330 380 40,000  Level Houston Center
01:16PM 28.7814 -88.5983 307° West 330 380 40,000  Level Houston Center
01:17PM 28.8478 -88.6983 307° West 330 380 40,000  Level Houston Center
01:18PM 28.9017 -88.7828 306° West 330 380 40,000  Level Houston Center
01:19PM 28.9564 -88.8642 308° West 330 380 40,000  Level Houston Center
01:20PM 29.0114 -88.9475 307° West 329 379 40,000  Level Houston Center
01:21PM 29.0656 -89.0303 307° West 329 379 40,000  Level Houston Center
01:22PM 29.1308 -89.1306 307° West 329 379 40,000  Level Houston Center
01:23PM 29.1847 -89.2128 307° West 327 376 40,000  Level Houston Center
01:24PM 29.2394 -89.2958 307° West 327 376 40,000  Level Houston Center
01:25PM 29.2936 -89.3786 307° West 327 376 40,000  Level Houston Center
01:26PM 29.3481 -89.4628 307° West 327 376 40,000  Level Houston Center
01:27PM 29.4028 -89.5475 307° West 327 376 40,000  Level Houston Center
01:28PM 29.4694 -89.6511 306° West 331 381 40,000  Level Houston Center
01:29PM 29.5239 -89.7361 306° West 331 381 40,000  Level Houston Center
01:30PM 29.5786 -89.8206 307° West 331 381 40,000  Level Houston Center
01:31PM 29.6328 -89.9058 306° West 330 380 40,000  Level Houston Center
01:32PM 29.6878 -89.9908 307° West 330 380 40,000  Level Houston Center
01:33PM 29.7428 -90.0764 307° West 330 380 40,000  Level Houston Center
01:34PM 29.8089 -90.1781 307° West 330 380 40,000  Level Houston Center
01:35PM 29.8639 -90.2636 307° West 330 380 40,000  Level Houston Center
01:36PM 29.9186 -90.3489 307° West 331 381 40,000  Level Houston Center
01:37PM 29.9733 -90.4342 307° West 330 380 40,000  Level Houston Center
01:38PM 30.0261 -90.5194 306° West 330 380 40,000  Level Houston Center
01:39PM 30.0819 -90.6047 307° West 330 380 40,000  Level Houston Center
01:40PM 30.1461 -90.7075 306° West 330 380 40,000  Level Houston Center
01:42PM 30.2019 -90.7928 307° West 330 380 40,000  Level Houston Center
01:43PM 30.2553 -90.8792 306° West 330 380 40,000  Level Houston Center
01:44PM 30.3106 -90.9644 307° West 331 381 40,000  Level Houston Center
01:45PM 30.3639 -91.0503 306° West 331 381 40,000  Level Houston Center
01:46PM 30.4167 -91.1375 305° West 331 381 40,000  Level Houston Center
01:47PM 30.4819 -91.2414 306° West 331 381 40,000  Level Houston Center
01:48PM 30.5358 -91.3269 306° West 330 380 40,000  Level Houston Center
01:49PM 30.5881 -91.4131 305° West 329 379 40,000  Level Houston Center
01:50PM 30.6472 -91.5056 307° West 329 379 40,000  Level Houston Center
01:51PM 30.6994 -91.5911 305° West 328 377 40,000  Level Houston Center
01:52PM 30.7525 -91.6750 306° West 326 375 40,000  Level Houston Center
01:53PM 30.8042 -91.7617 305° West 325 374 40,000  Level Houston Center
01:54PM 30.8572 -91.8461 306° West 325 374 40,000  Level Houston Center
01:55PM 30.9108 -91.9333 306° West 327 376 40,000  Level Houston Center
01:56PM 30.9747 -92.0381 305° West 328 377 40,000  Level Houston Center
01:57PM 31.0294 -92.1283 305° West 330 380 40,000  Level Houston Center
01:58PM 31.0822 -92.2156 305° West 331 381 40,000  Level Houston Center
01:59PM 31.1364 -92.3036 306° West 334 384 40,000  Level Houston Center
02:00PM 31.1892 -92.3914 305° West 334 384 40,000  Level Houston Center
02:01PM 31.2456 -92.4828 306° West 345 397 40,000  Level Houston Center
02:02PM 31.2953 -92.6014 296° West 343 395 40,000  Level Houston Center
02:03PM 31.3336 -92.7022 294° West 342 394 40,000  Level Houston Center
02:04PM 31.3708 -92.8028 293° West 341 392 40,000  Level Houston Center
02:05PM 31.4081 -92.9014 294° West 335 386 40,000  Level Houston Center
02:06PM 31.4450 -93.0000 294° West 335 386 40,000  Level Houston Center
02:07PM 31.4897 -93.1186 294° West 334 384 40,000  Level Houston Center
02:08PM 31.5256 -93.2181 293° West 334 384 40,000  Level Houston Center
02:09PM 31.5586 -93.3058 294° West 334 384 40,000  Level Houston Center
02:11PM 31.6028 -93.4239 294° West 333 383 40,000  Level Houston Center
02:12PM 31.6389 -93.5225 293° West 331 381 40,000  Level Houston Center
02:13PM 31.6772 -93.6272 293° West 331 381 40,000  Level Houston Center
02:14PM 31.7128 -93.7261 293° West 330 380 40,000  Level Houston Center
02:15PM 31.7500 -93.8272 293° West 334 384 40,000  Level Houston Center
02:16PM 31.7703 -93.9339 283° West 335 386 40,000  Level Houston Center
02:17PM 31.7914 -94.0356 284° West 339 390 40,000  Level Fort Worth Center
02:18PM 31.8139 -94.1500 283° West 339 390 40,000  Level Fort Worth Center
02:19PM 31.8467 -94.2747 287° West 338 389 40,000  Level Fort Worth Center
02:20PM 31.8831 -94.3756 293° West 334 384 40,000  Level Fort Worth Center
02:21PM 31.9189 -94.4781 292° West 336 387 40,000 -480 Level Fort Worth Center
02:22PM 31.9567 -94.5808 293° West 342 394 39,100 -1,140 Descending Fort Worth Center
02:23PM 31.9944 -94.6894 292° West 355 409 37,700 -1,620 Descending Fort Worth Center
02:24PM 32.0317 -94.7942 293° West 353 406 35,800 -2,280 Descending Fort Worth Center
02:25PM 32.0636 -94.9269 286° West 357 411 33,000 -2,220 Descending Fort Worth Center
02:26PM 32.0939 -95.0336 289° West 340 391 31,300 -1,620 Descending Fort Worth Center
02:27PM 32.1308 -95.1325 294° West 330 380 29,700 -1,560 Descending Fort Worth Center
02:28PM 32.1681 -95.2333 294° West 335 386 28,100 -1,620 Descending Fort Worth Center
02:29PM 32.2069 -95.3394 293° West 347 399 26,400 -1,800 Descending Fort Worth Center
02:30PM 32.2481 -95.4528 293° West 352 405 24,400 -1,920 Descending Fort Worth Center
02:31PM 32.2861 -95.5606 293° West 356 410 22,500 -2,040 Descending Fort Worth Center
02:32PM 32.3308 -95.6875 293° West 348 400 20,300 -1,920 Descending Fort Worth Center
02:33PM 32.3697 -95.7903 294° West 344 396 18,500 -1,800 Descending Fort Worth Center
02:34PM 32.4058 -95.8950 292° West 344 396 16,600 -1,860 Descending Fort Worth Center
02:35PM 32.4467 -96.0069 293° West 324 373 14,700 -1,740 Descending Fort Worth Center
02:36PM 32.4803 -96.1008 293° West 312 359 13,100 -1,620 Descending Fort Worth Center
02:37PM 32.5142 -96.1947 293° West 310 357 11,400 -1,740 Descending Fort Worth Center
02:38PM 32.5494 -96.2947 293° West 308 354 9,600 -1,440 Descending Fort Worth Center
02:39PM 32.5900 -96.3789 300° West 297 342 8,400 -1,440 Descending Fort Worth Center
02:40PM 32.6381 -96.4631 304° West 288 331 6,700 -1,320 Descending Fort Worth Center
02:42PM 32.6814 -96.5328 306° West 267 307 5,700 -840 Descending Fort Worth Center
02:43PM 32.7364 -96.5969 316° Northwest 261 300 5,000 -360 Descending Fort Worth Center
02:44PM 32.7883 -96.6567 316° Northwest 260 299 5,000 -540 Level Fort Worth Center
02:45PM 32.8425 -96.7183 316° Northwest 248 285 4,000 -480 Descending Fort Worth Center
02:46PM 32.8853 -96.7678 316° Northwest 218 251 4,000 -360 Level Fort Worth Center
02:47PM 32.9289 -96.8172 316° Northwest 218 251 3,300 -540 Descending Fort Worth Center
02:48PM 32.9556 -96.8778 298° West 196 226 3,000 -540 Descending Fort Worth Center
02:49PM 32.9503 -96.9350 264° West 192 221 2,300 -660 Descending Fort Worth Center
02:50PM 32.8961 -96.9172 165° South 184 212 1,700 -660 Descending Fort Worth Center
02:51PM 32.8683 -96.8842 135° Southeast 138 159 1,000 -480 Descending Fort Worth Center
02:52PM 32.8450 -96.8572 136° Southeast 131 151 700 -300 Descending Fort Worth Center